Time;durP1;ratioP1;P1;durP2;ratioP2;P2;SDS_P1;SDS_P2;PMS_P1;PMS_P2;Temp;Humidity;BMP_temperature;BMP_pressure;BME280_temperature;BME280_humidity;BME280_pressure;Samples;Min_cycle;Max_cycle;Signal;HPM_P1;HPM_P2
2022/12/04 00:01:09;;;;;;;;;;;;;;;4.17;59.50;101645.63;5035235;28;19921;-51
2022/12/04 00:03:34;;;;;;;;;;;;;;;4.14;59.43;101648.16;5033643;28;20380;-51
2022/12/04 00:06:12;;;;;;;;;;;;;;;4.20;59.40;101650.91;5034940;28;19996;-54
2022/12/04 00:08:38;;;;;;;;;;;;;;;4.19;59.24;101650.91;5034340;28;20008;-52
2022/12/04 00:11:04;;;;;;;;;;;;;;;4.24;59.43;101649.28;5034099;28;19952;-53
2022/12/04 00:13:30;;;;;;;;;;;;;;;3.91;60.22;101642.41;5034572;28;19928;-54
2022/12/04 00:15:55;;;;;;;;;;;;;;;4.04;59.61;101651.38;5033023;28;19921;-53
2022/12/04 00:18:20;;;;;;;;;;;;;;;4.04;59.74;101653.97;5034767;28;20381;-52
2022/12/04 00:20:46;;;;;;;;;;;;;;;3.94;60.29;101650.25;5034052;28;19918;-55
2022/12/04 00:23:12;;;;;;;;;;;;;;;4.05;60.07;101655.72;5034334;28;19917;-55
2022/12/04 00:25:37;;;;;;;;;;;;;;;4.03;60.21;101652.22;5034315;28;19929;-54
2022/12/04 00:28:03;;;;;;;;;;;;;;;4.15;59.66;101651.66;5034314;28;19925;-51
2022/12/04 00:30:28;;;;;;;;;;;;;;;4.15;59.81;101652.53;5034262;28;19924;-53
2022/12/04 00:32:53;;;;;;;;;;;;;;;4.19;59.62;101649.16;5032807;28;19921;-52
2022/12/04 00:35:18;;;;;;;;;;;;;;;4.14;59.77;101650.75;5033969;28;19918;-54
2022/12/04 00:37:44;;;;;;;;;;;;;;;4.13;59.73;101654.19;5033170;28;19944;-51
2022/12/04 00:40:09;;;;;;;;;;;;;;;4.10;59.97;101659.31;5034009;28;19921;-51
2022/12/04 00:42:34;;;;;;;;;;;;;;;4.11;60.27;101655.00;5033969;28;19968;-51
2022/12/04 00:45:00;;;;;;;;;;;;;;;4.27;59.68;101656.25;5034152;28;19922;-51
2022/12/04 00:47:25;;;;;;;;;;;;;;;4.27;59.46;101653.66;5033946;28;19928;-52
2022/12/04 00:49:50;;;;;;;;;;;;;;;4.29;59.76;101646.78;5032828;28;20387;-54
2022/12/04 00:52:15;;;;;;;;;;;;;;;4.25;59.68;101653.63;5032610;28;19975;-55
2022/12/04 00:54:41;;;;;;;;;;;;;;;4.32;59.61;101644.25;5033666;28;19927;-53
2022/12/04 00:57:06;;;;;;;;;;;;;;;4.17;60.66;101645.63;5033817;28;19924;-54
2022/12/04 00:59:31;;;;;;;;;;;;;;;4.19;60.07;101643.97;5033768;28;19921;-54
2022/12/04 01:01:56;;;;;;;;;;;;;;;4.25;60.40;101647.53;5033829;28;20276;-52
2022/12/04 01:04:22;;;;;;;;;;;;;;;4.31;60.25;101647.69;5033649;28;19921;-53
2022/12/04 01:06:47;;;;;;;;;;;;;;;4.36;59.97;101646.09;5033596;28;19925;-51
2022/12/04 01:09:12;;;;;;;;;;;;;;;4.41;59.92;101637.53;5032415;28;19961;-53
2022/12/04 01:11:37;;;;;;;;;;;;;;;4.39;59.84;101638.38;5033582;28;19976;-55
2022/12/04 01:14:03;;;;;;;;;;;;;;;4.22;60.16;101634.47;5033449;28;20304;-53
2022/12/04 01:16:29;;;;;;;;;;;;;;;4.19;60.46;101638.75;5033596;28;20352;-57
2022/12/04 01:18:55;;;;;;;;;;;;;;;4.20;60.37;101635.31;5033981;28;19924;-56
2022/12/04 01:21:20;;;;;;;;;;;;;;;4.23;60.57;101637.13;5035962;28;19917;-51
2022/12/04 01:23:45;;;;;;;;;;;;;;;4.14;60.75;101634.28;5037754;28;19940;-54
2022/12/04 01:26:11;;;;;;;;;;;;;;;4.10;60.94;101628.09;5037651;28;19924;-53
2022/12/04 01:28:36;;;;;;;;;;;;;;;4.23;60.94;101628.41;5037520;28;19953;-52
2022/12/04 01:31:03;;;;;;;;;;;;;;;4.25;60.61;101621.53;5037507;28;19925;-53
2022/12/04 01:33:29;;;;;;;;;;;;;;;4.25;60.78;101626.72;5037810;28;19924;-53
2022/12/04 01:35:56;;;;;;;;;;;;;;;4.22;60.94;101626.66;5037489;28;19921;-54
2022/12/04 01:38:21;;;;;;;;;;;;;;;4.20;61.30;101624.91;5037148;28;20003;-52
2022/12/04 01:40:46;;;;;;;;;;;;;;;4.31;60.87;101616.44;5037249;28;19948;-55
2022/12/04 01:43:12;;;;;;;;;;;;;;;4.42;60.46;101631.47;5037278;28;20349;-52
2022/12/04 01:45:46;;;;;;;;;;;;;;;4.37;60.83;101622.69;5036101;28;20015;-53
2022/12/04 01:48:14;;;;;;;;;;;;;;;4.42;60.90;101626.28;5037203;28;19917;-53
2022/12/04 01:50:41;;;;;;;;;;;;;;;4.47;60.78;101622.91;5055077;28;19917;-55
2022/12/04 01:53:06;;;;;;;;;;;;;;;4.39;60.87;101626.22;5056935;28;19925;-54
2022/12/04 01:55:32;;;;;;;;;;;;;;;4.35;61.03;101620.88;5057144;28;19916;-53
2022/12/04 01:57:57;;;;;;;;;;;;;;;4.26;61.39;101620.69;5056923;28;19921;-54
2022/12/04 02:00:23;;;;;;;;;;;;;;;4.40;61.02;101619.28;5056879;28;19921;-53
2022/12/04 02:02:48;;;;;;;;;;;;;;;4.39;61.13;101612.34;5055704;28;20003;-54
2022/12/04 02:05:16;;;;;;;;;;;;;;;4.17;61.69;101614.41;5057185;28;19927;-53
2022/12/04 02:07:43;;;;;;;;;;;;;;;4.25;61.53;101619.81;5056788;28;19917;-54
2022/12/04 02:10:09;;;;;;;;;;;;;;;4.37;61.15;101620.09;5056876;28;20285;-52
2022/12/04 02:12:34;;;;;;;;;;;;;;;4.44;61.07;101623.72;5056706;28;19990;-55
2022/12/04 02:15:15;;;;;;;;;;;;;;;4.31;61.70;101619.97;5056456;28;20327;-54
2022/12/04 02:17:49;;;;;;;;;;;;;;;4.44;61.56;101616.78;5056278;28;19917;-55
2022/12/04 02:20:27;;;;;;;;;;;;;;;4.49;61.51;101622.09;5056540;28;19920;-51
2022/12/04 02:23:10;;;;;;;;;;;;;;;4.31;62.12;101621.66;5056383;28;20304;-54
2022/12/04 02:25:54;;;;;;;;;;;;;;;4.26;61.93;101623.28;5056393;28;19924;-52
2022/12/04 02:28:25;;;;;;;;;;;;;;;4.36;61.79;101625.28;5056434;28;19957;-51
2022/12/04 02:30:54;;;;;;;;;;;;;;;4.30;61.87;101617.31;5056380;28;19917;-56
2022/12/04 02:33:22;;;;;;;;;;;;;;;4.35;62.25;101620.88;5055614;28;20293;-54
2022/12/04 02:35:51;;;;;;;;;;;;;;;4.38;62.05;101613.16;5054956;28;19917;-54
2022/12/04 02:38:42;;;;;;;;;;;;;;;4.34;61.84;101614.81;5056629;28;19967;-54
2022/12/04 02:41:26;;;;;;;;;;;;;;;4.29;62.20;101618.16;5054233;28;19917;-54
2022/12/04 02:43:57;;;;;;;;;;;;;;;4.40;62.09;101614.09;5056102;28;19924;-54
2022/12/04 02:46:49;;;;;;;;;;;;;;;4.41;61.82;101608.91;5056462;28;20003;-55
2022/12/04 02:49:17;;;;;;;;;;;;;;;4.43;61.81;101608.97;5051049;28;20369;-54
2022/12/04 02:51:43;;;;;;;;;;;;;;;4.39;61.92;101591.53;5055972;28;19925;-55
2022/12/04 02:54:31;;;;;;;;;;;;;;;4.41;61.80;101605.44;5056114;28;19940;-55
2022/12/04 02:56:57;;;;;;;;;;;;;;;4.38;62.09;101584.53;5056088;28;19962;-51
2022/12/04 02:59:29;;;;;;;;;;;;;;;4.45;61.78;101589.03;5055737;28;19920;-54
2022/12/04 03:01:56;;;;;;;;;;;;;;;4.38;62.13;101589.72;5056056;28;19916;-54
2022/12/04 03:04:26;;;;;;;;;;;;;;;4.48;61.79;101586.50;5055494;28;19992;-53
2022/12/04 03:06:54;;;;;;;;;;;;;;;4.45;62.25;101589.91;5055449;28;19917;-54
2022/12/04 03:09:22;;;;;;;;;;;;;;;4.50;62.66;101583.94;5055612;28;19917;-55
2022/12/04 03:12:02;;;;;;;;;;;;;;;4.43;62.31;101589.03;5055729;28;19920;-54
2022/12/04 03:14:31;;;;;;;;;;;;;;;4.53;62.53;101587.47;5052577;28;19924;-54
2022/12/04 03:17:01;;;;;;;;;;;;;;;4.49;62.35;101579.59;5035645;28;20373;-54
2022/12/04 03:19:32;;;;;;;;;;;;;;;4.50;63.28;101581.31;5034158;28;20277;-51
2022/12/04 03:22:01;;;;;;;;;;;;;;;4.49;62.70;101585.66;5035713;28;19939;-55
2022/12/04 03:24:32;;;;;;;;;;;;;;;4.56;62.30;101582.34;5035474;28;20012;-53
2022/12/04 03:27:07;;;;;;;;;;;;;;;4.66;62.89;101588.63;5035696;28;19978;-53
2022/12/04 03:29:38;;;;;;;;;;;;;;;4.63;62.25;101589.47;5035538;28;20008;-55
2022/12/04 03:32:12;;;;;;;;;;;;;;;4.61;62.41;101591.13;5035623;28;19924;-55
2022/12/04 03:35:03;;;;;;;;;;;;;;;4.66;62.41;101584.28;5035302;28;19917;-55
2022/12/04 03:37:49;;;;;;;;;;;;;;;4.62;62.51;101582.47;5032888;28;19921;-54
2022/12/04 03:40:19;;;;;;;;;;;;;;;4.78;61.75;101583.69;5034989;28;19967;-54
2022/12/04 03:42:50;;;;;;;;;;;;;;;4.72;61.95;101587.91;5035002;28;19917;-54
2022/12/04 03:45:18;;;;;;;;;;;;;;;4.74;62.06;101586.19;5034369;28;19921;-52
2022/12/04 03:47:52;;;;;;;;;;;;;;;4.65;62.37;101577.34;5034942;28;19963;-55
2022/12/04 03:50:38;;;;;;;;;;;;;;;4.66;62.53;101568.66;5047173;28;19929;-54
2022/12/04 03:53:08;;;;;;;;;;;;;;;4.55;62.99;101564.06;5054621;28;20386;-53
2022/12/04 03:55:51;;;;;;;;;;;;;;;4.62;62.73;101569.44;5055131;28;19917;-53
2022/12/04 03:58:18;;;;;;;;;;;;;;;4.67;62.50;101578.25;5054648;28;19917;-54
2022/12/04 04:00:45;;;;;;;;;;;;;;;4.62;62.73;101572.06;5053537;28;19923;-55
2022/12/04 04:03:11;;;;;;;;;;;;;;;4.58;63.01;101566.75;5054582;28;19917;-55
2022/12/04 04:05:39;;;;;;;;;;;;;;;4.54;63.16;101568.41;5055153;28;19917;-52
2022/12/04 04:08:24;;;;;;;;;;;;;;;4.55;63.41;101567.59;5053612;28;19917;-55
2022/12/04 04:10:51;;;;;;;;;;;;;;;4.56;63.64;101563.25;5054500;28;19924;-53
2022/12/04 04:24:38;;;;;;;;;;;;;;;4.88;62.43;101549.19;5054214;28;19923;-53
2022/12/04 04:27:04;;;;;;;;;;;;;;;4.74;63.03;101549.75;5054360;28;19917;-55
2022/12/04 04:29:29;;;;;;;;;;;;;;;4.67;63.58;101549.63;5054132;28;20304;-54
2022/12/04 04:31:58;;;;;;;;;;;;;;;4.80;62.90;101549.88;5043923;28;20071;-52
2022/12/04 04:34:39;;;;;;;;;;;;;;;4.80;63.12;101552.47;5032765;28;19917;-53
2022/12/04 04:37:15;;;;;;;;;;;;;;;4.69;63.62;101553.13;5034266;28;19925;-52
2022/12/04 04:39:51;;;;;;;;;;;;;;;4.57;63.69;101546.78;5034349;28;19917;-53
2022/12/04 04:42:21;;;;;;;;;;;;;;;4.77;63.41;101552.41;5034168;28;19917;-54
2022/12/04 04:44:51;;;;;;;;;;;;;;;4.66;63.62;101557.38;5034532;28;19939;-55
2022/12/04 04:47:26;;;;;;;;;;;;;;;4.77;63.73;101552.41;5033947;28;19924;-54
2022/12/04 04:49:53;;;;;;;;;;;;;;;4.63;64.11;101558.22;5041649;28;19920;-52
2022/12/04 04:52:20;;;;;;;;;;;;;;;4.73;64.25;101553.19;5054416;28;19951;-54
2022/12/04 04:54:46;;;;;;;;;;;;;;;4.86;63.38;101555.19;5053554;28;19950;-54
2022/12/04 04:57:11;;;;;;;;;;;;;;;4.80;63.84;101557.69;5052377;28;20011;-55
2022/12/04 04:59:36;;;;;;;;;;;;;;;4.88;63.69;101557.00;5045005;28;20030;-53
2022/12/04 05:02:02;;;;;;;;;;;;;;;4.81;63.55;101562.03;5034056;28;19921;-53
2022/12/04 05:04:27;;;;;;;;;;;;;;;4.72;63.84;101567.94;5033982;28;19917;-53
2022/12/04 05:06:52;;;;;;;;;;;;;;;4.82;63.67;101572.47;5034031;28;19921;-53
2022/12/04 05:09:17;;;;;;;;;;;;;;;4.90;63.55;101567.44;5033869;28;20423;-52
2022/12/04 05:11:42;;;;;;;;;;;;;;;4.97;63.29;101573.66;5033814;28;19928;-53
2022/12/04 05:14:08;;;;;;;;;;;;;;;5.02;63.06;101567.69;5033792;28;20027;-54
2022/12/04 05:16:34;;;;;;;;;;;;;;;4.87;63.53;101572.59;5032259;28;19925;-54
2022/12/04 05:21:43;;;;;;;;;;;;;;;4.88;64.47;101564.81;5033776;28;19975;-55
2022/12/04 05:24:08;;;;;;;;;;;;;;;4.89;63.67;101566.56;5034135;28;19921;-55
2022/12/04 05:26:33;;;;;;;;;;;;;;;4.82;64.04;101569.88;5033705;28;19921;-56
2022/12/04 05:28:59;;;;;;;;;;;;;;;4.89;63.91;101560.47;5033628;28;19961;-55
2022/12/04 05:31:24;;;;;;;;;;;;;;;4.88;64.12;101571.75;5033849;28;19925;-52
2022/12/04 05:33:49;;;;;;;;;;;;;;;5.05;63.73;101561.66;5034066;28;19917;-54
2022/12/04 05:36:14;;;;;;;;;;;;;;;5.07;63.76;101554.78;5033694;28;19925;-55
2022/12/04 05:38:40;;;;;;;;;;;;;;;4.92;64.30;101568.34;5033614;28;20014;-55
2022/12/04 05:41:05;;;;;;;;;;;;;;;4.99;63.82;101565.03;5033546;28;19925;-55
2022/12/04 05:43:32;;;;;;;;;;;;;;;5.00;63.98;101558.97;5033655;28;19931;-54
2022/12/04 05:46:00;;;;;;;;;;;;;;;5.01;63.97;101565.06;5033543;28;19987;-54
2022/12/04 05:48:26;;;;;;;;;;;;;;;4.90;64.27;101567.44;5033816;28;19925;-52
2022/12/04 05:50:51;;;;;;;;;;;;;;;5.05;64.21;101566.88;5047344;28;19921;-53
2022/12/04 05:53:16;;;;;;;;;;;;;;;5.01;64.53;101568.53;5053212;28;19932;-52
2022/12/04 05:55:41;;;;;;;;;;;;;;;4.97;64.16;101571.94;5044930;28;20330;-52
2022/12/04 05:58:07;;;;;;;;;;;;;;;4.99;64.32;101564.13;5032074;28;19917;-55
2022/12/04 06:00:32;;;;;;;;;;;;;;;4.96;64.15;101564.97;5033602;28;19971;-55
2022/12/04 06:02:57;;;;;;;;;;;;;;;5.02;64.12;101578.09;5033393;28;19929;-53
2022/12/04 06:05:22;;;;;;;;;;;;;;;5.06;63.89;101579.91;5033593;28;19982;-51
2022/12/04 06:07:48;;;;;;;;;;;;;;;5.07;63.77;101565.19;5033271;28;20319;-54
2022/12/04 06:10:13;;;;;;;;;;;;;;;5.14;63.89;101573.13;5036812;28;19921;-51
2022/12/04 06:12:38;;;;;;;;;;;;;;;5.17;63.55;101572.31;5036925;28;19921;-53
2022/12/04 06:15:04;;;;;;;;;;;;;;;5.16;63.43;101568.84;5036763;28;19917;-53
2022/12/04 06:17:29;;;;;;;;;;;;;;;5.11;63.96;101578.31;5037090;28;19917;-54
2022/12/04 06:19:54;;;;;;;;;;;;;;;5.13;63.86;101573.97;5036888;28;20270;-54
2022/12/04 06:22:20;;;;;;;;;;;;;;;5.13;63.81;101570.50;5036850;28;19924;-51
2022/12/04 06:24:45;;;;;;;;;;;;;;;5.04;64.32;101581.63;5036322;28;20369;-53
2022/12/04 06:27:10;;;;;;;;;;;;;;;5.09;64.02;101577.38;5036605;28;20011;-54
2022/12/04 06:29:36;;;;;;;;;;;;;;;5.06;64.41;101579.03;5035660;28;19975;-53
2022/12/04 06:32:01;;;;;;;;;;;;;;;5.03;64.36;101571.19;5036565;28;20396;-54
2022/12/04 06:34:26;;;;;;;;;;;;;;;5.05;64.73;101572.09;5036527;28;19921;-53
2022/12/04 06:36:52;;;;;;;;;;;;;;;5.08;64.17;101569.53;5036531;28;19929;-55
2022/12/04 06:39:17;;;;;;;;;;;;;;;5.01;64.59;101565.94;5035097;28;19917;-54
2022/12/04 06:41:42;;;;;;;;;;;;;;;5.05;64.60;101572.94;5036915;28;19917;-55
2022/12/04 06:44:08;;;;;;;;;;;;;;;4.98;64.83;101580.63;5035886;28;19921;-56
2022/12/04 06:46:33;;;;;;;;;;;;;;;5.09;64.46;101574.78;5036161;28;20369;-55
2022/12/04 06:49:00;;;;;;;;;;;;;;;5.06;64.25;101589.47;5036256;28;19924;-52
2022/12/04 06:51:27;;;;;;;;;;;;;;;5.12;64.10;101585.25;5038225;28;19933;-54
2022/12/04 06:53:52;;;;;;;;;;;;;;;5.16;64.28;101586.19;5035816;28;19925;-54
2022/12/04 06:56:19;;;;;;;;;;;;;;;5.14;64.22;101586.16;5036072;28;20388;-53
2022/12/04 06:58:45;;;;;;;;;;;;;;;5.31;63.83;101585.63;5035982;28;19924;-53
2022/12/04 07:01:12;;;;;;;;;;;;;;;5.36;63.70;101584.84;5036201;28;19921;-54
2022/12/04 07:03:37;;;;;;;;;;;;;;;5.44;63.52;101582.41;5035862;28;20316;-54
2022/12/04 07:06:13;;;;;;;;;;;;;;;5.50;63.32;101582.50;5035902;28;19922;-55
2022/12/04 07:08:38;;;;;;;;;;;;;;;5.48;63.24;101588.53;5035675;28;19957;-54
2022/12/04 07:11:03;;;;;;;;;;;;;;;5.49;63.30;101583.34;5036284;28;20356;-54
2022/12/04 07:13:28;;;;;;;;;;;;;;;5.47;63.49;101592.88;5034359;28;19982;-55
2022/12/04 07:15:54;;;;;;;;;;;;;;;5.52;63.09;101586.03;5034411;28;20000;-55
2022/12/04 07:18:19;;;;;;;;;;;;;;;5.54;63.10;101579.09;5035431;28;19921;-55
2022/12/04 07:20:44;;;;;;;;;;;;;;;5.58;63.17;101582.63;5035577;28;20372;-54
2022/12/04 07:23:09;;;;;;;;;;;;;;;5.47;63.32;101579.84;5035579;28;20024;-55
2022/12/04 07:25:37;;;;;;;;;;;;;;;5.58;63.21;101585.25;5035588;28;20262;-56
2022/12/04 07:28:03;;;;;;;;;;;;;;;5.61;63.10;101574.88;5035404;28;20372;-54
2022/12/04 07:30:28;;;;;;;;;;;;;;;5.60;63.21;101580.94;5035476;28;19929;-57
2022/12/04 07:32:53;;;;;;;;;;;;;;;5.44;63.79;101571.97;5035287;28;19964;-56
2022/12/04 07:35:18;;;;;;;;;;;;;;;5.52;63.45;101580.81;5035591;28;19921;-56
2022/12/04 07:37:44;;;;;;;;;;;;;;;5.61;65.16;101572.25;5035127;28;20284;-56
2022/12/04 07:40:09;;;;;;;;;;;;;;;5.46;64.03;101569.38;5035480;28;20016;-56
2022/12/04 07:42:34;;;;;;;;;;;;;;;5.65;63.64;101574.06;5035262;28;19967;-54
2022/12/04 07:45:00;;;;;;;;;;;;;;;5.64;63.28;101565.38;5034307;28;19975;-54
2022/12/04 07:47:25;;;;;;;;;;;;;;;5.61;63.60;101567.91;5035228;28;19932;-55
2022/12/04 07:49:50;;;;;;;;;;;;;;;5.73;63.13;101559.44;5034641;28;19972;-57
2022/12/04 07:52:15;;;;;;;;;;;;;;;5.77;63.32;101562.97;5035147;28;19935;-53
2022/12/04 07:54:41;;;;;;;;;;;;;;;5.77;63.08;101560.38;5034986;28;19947;-55
2022/12/04 07:57:06;;;;;;;;;;;;;;;5.68;63.38;101564.56;5034910;28;19975;-53
2022/12/04 07:59:31;;;;;;;;;;;;;;;5.82;62.76;101569.13;5034997;28;19975;-55
2022/12/04 08:01:56;;;;;;;;;;;;;;;5.86;62.71;101570.94;5034917;28;19957;-56
2022/12/04 08:04:22;;;;;;;;;;;;;;;5.91;62.61;101564.09;5034806;28;19921;-56
2022/12/04 08:06:47;;;;;;;;;;;;;;;5.94;62.62;101561.53;5034710;28;20391;-56
2022/12/04 08:09:12;;;;;;;;;;;;;;;5.86;63.01;101552.69;5034706;28;20395;-53
2022/12/04 08:11:38;;;;;;;;;;;;;;;5.93;62.77;101557.19;5034974;28;20063;-53
2022/12/04 08:14:04;;;;;;;;;;;;;;;5.95;62.68;101554.63;5034581;28;20266;-56
2022/12/04 08:16:30;;;;;;;;;;;;;;;6.06;62.45;101559.13;5034552;28;19928;-56
2022/12/04 08:18:57;;;;;;;;;;;;;;;6.09;62.28;101559.19;5034642;28;19924;-55
2022/12/04 08:21:23;;;;;;;;;;;;;;;6.12;62.24;101554.00;5034597;28;19952;-54
2022/12/04 08:23:50;;;;;;;;;;;;;;;6.17;61.92;101557.56;5034216;28;19991;-56
2022/12/04 08:26:16;;;;;;;;;;;;;;;6.16;62.01;101555.81;5034674;28;19960;-55
2022/12/04 08:28:41;;;;;;;;;;;;;;;6.23;61.77;101555.91;5034522;28;19960;-51
2022/12/04 08:31:17;;;;;;;;;;;;;;;6.24;62.06;101560.28;5033819;28;19964;-55
2022/12/04 08:33:43;;;;;;;;;;;;;;;6.29;61.66;101574.25;5034102;28;20005;-56
2022/12/04 08:36:09;;;;;;;;;;;;;;;6.26;61.72;101582.03;5034558;28;19952;-54
2022/12/04 08:38:35;;;;;;;;;;;;;;;6.25;61.70;101580.28;5034190;28;19939;-56
2022/12/04 08:41:01;;;;;;;;;;;;;;;6.29;61.73;101587.31;5016898;28;20429;-54
2022/12/04 08:43:26;;;;;;;;;;;;;;;6.35;61.54;101582.19;5034108;28;19925;-56
2022/12/04 08:45:58;;;;;;;;;;;;;;;6.37;61.42;101581.34;5034249;28;19922;-56
2022/12/04 08:48:24;;;;;;;;;;;;;;;6.43;61.04;101588.41;5034114;28;20365;-54
2022/12/04 08:50:49;;;;;;;;;;;;;;;6.38;61.42;101587.44;5042944;28;20039;-54
2022/12/04 08:53:14;;;;;;;;;;;;;;;6.48;61.02;101584.13;5054012;28;19967;-55
2022/12/04 08:55:40;;;;;;;;;;;;;;;6.49;61.07;101591.09;5054010;28;19916;-56
2022/12/04 08:58:05;;;;;;;;;;;;;;;6.40;61.36;101580.53;5053853;28;20048;-56
2022/12/04 09:00:30;;;;;;;;;;;;;;;6.19;61.65;101575.00;5053985;28;20019;-56
2022/12/04 09:02:56;;;;;;;;;;;;;;;6.31;62.33;101575.19;5053865;28;20356;-56
2022/12/04 09:05:21;;;;;;;;;;;;;;;6.38;61.55;101577.00;5054087;28;19917;-52
2022/12/04 09:07:46;;;;;;;;;;;;;;;6.43;61.41;101575.34;5052354;28;19943;-53
2022/12/04 09:10:12;;;;;;;;;;;;;;;6.37;61.29;101570.91;5053255;28;19921;-57
2022/12/04 09:12:37;;;;;;;;;;;;;;;6.34;61.59;101572.59;5053816;28;19966;-54
2022/12/04 09:15:03;;;;;;;;;;;;;;;6.26;61.83;101571.59;5053368;28;19921;-56
2022/12/04 09:17:28;;;;;;;;;;;;;;;6.35;61.79;101572.63;5053867;28;19923;-55
2022/12/04 09:19:53;;;;;;;;;;;;;;;6.55;60.99;101575.53;5053587;28;19927;-56
2022/12/04 09:22:18;;;;;;;;;;;;;;;6.63;61.05;101573.91;5052544;28;19921;-56
2022/12/04 09:24:44;;;;;;;;;;;;;;;6.43;61.47;101567.53;5053762;28;20273;-58
2022/12/04 09:27:09;;;;;;;;;;;;;;;6.60;60.75;101573.84;5053862;28;19921;-59
2022/12/04 09:29:34;;;;;;;;;;;;;;;6.65;60.72;101576.50;5053539;28;20014;-57
2022/12/04 09:31:59;;;;;;;;;;;;;;;6.73;60.61;101574.00;5053675;28;19935;-58
2022/12/04 09:34:25;;;;;;;;;;;;;;;6.74;60.47;101573.13;5053384;28;20408;-54
2022/12/04 09:36:50;;;;;;;;;;;;;;;6.80;60.38;101581.06;5053366;28;19940;-52
2022/12/04 09:39:15;;;;;;;;;;;;;;;6.83;60.31;101570.66;5053427;28;20476;-55
2022/12/04 09:41:43;;;;;;;;;;;;;;;6.82;60.27;101576.72;5053784;28;20033;-57
2022/12/04 09:44:08;;;;;;;;;;;;;;;6.90;60.18;101582.94;5057243;28;19917;-57
2022/12/04 09:46:45;;;;;;;;;;;;;;;6.85;60.53;101572.44;5057435;28;19917;-56
2022/12/04 09:49:13;;;;;;;;;;;;;;;6.90;60.28;101570.78;5055673;28;19923;-54
2022/12/04 09:51:39;;;;;;;;;;;;;;;6.87;60.09;101568.09;5057409;28;19931;-56
2022/12/04 09:54:25;;;;;;;;;;;;;;;6.81;60.30;101564.53;5057045;28;20335;-57
2022/12/04 09:56:53;;;;;;;;;;;;;;;6.76;60.44;101559.25;5056814;28;20444;-57
2022/12/04 09:59:21;;;;;;;;;;;;;;;6.71;60.73;101565.28;5057155;28;19916;-55
2022/12/04 10:01:49;;;;;;;;;;;;;;;6.82;60.27;101559.34;5057499;28;19937;-53
2022/12/04 10:04:15;;;;;;;;;;;;;;;6.81;60.66;101557.56;5057140;28;19939;-56
2022/12/04 10:06:41;;;;;;;;;;;;;;;6.65;60.96;101555.63;5048255;28;19925;-56
2022/12/04 10:09:11;;;;;;;;;;;;;;;6.62;60.93;101551.25;5036233;28;20423;-55
2022/12/04 10:11:54;;;;;;;;;;;;;;;6.65;60.58;101547.78;5037132;28;20344;-55
2022/12/04 10:14:33;;;;;;;;;;;;;;;6.69;60.88;101552.19;5036972;28;19917;-55
2022/12/04 10:17:21;;;;;;;;;;;;;;;6.66;61.05;101545.22;5036438;28;19963;-56
2022/12/04 10:19:49;;;;;;;;;;;;;;;6.79;60.44;101553.22;5036183;28;20015;-56
2022/12/04 10:22:24;;;;;;;;;;;;;;;6.80;60.57;101549.72;5036946;28;19975;-56
2022/12/04 10:24:53;;;;;;;;;;;;;;;6.79;60.50;101547.97;5037025;28;19986;-54
2022/12/04 10:27:30;;;;;;;;;;;;;;;6.77;60.58;101540.09;5036699;28;19924;-55
2022/12/04 10:30:16;;;;;;;;;;;;;;;6.85;60.71;101534.97;5036790;28;19960;-56
2022/12/04 10:32:43;;;;;;;;;;;;;;;6.77;60.47;101540.09;5029037;28;19917;-52
2022/12/04 10:35:19;;;;;;;;;;;;;;;6.71;60.76;101532.22;5036724;28;19917;-58
2022/12/04 10:37:44;;;;;;;;;;;;;;;6.80;60.54;101531.44;5036507;28;19917;-54
2022/12/04 10:40:17;;;;;;;;;;;;;;;6.88;60.29;101538.50;5036665;28;20380;-55
2022/12/04 10:42:45;;;;;;;;;;;;;;;6.91;60.16;101537.69;5036457;28;19925;-55
2022/12/04 10:45:11;;;;;;;;;;;;;;;6.86;60.30;101534.09;5036094;28;19978;-55
2022/12/04 10:47:38;;;;;;;;;;;;;;;6.84;60.35;101530.63;5036352;28;20407;-56
2022/12/04 10:50:11;;;;;;;;;;;;;;;6.84;60.53;101523.66;5035911;28;19917;-57
2022/12/04 10:52:37;;;;;;;;;;;;;;;6.84;60.44;101518.44;5055930;28;19928;-56
2022/12/04 10:55:02;;;;;;;;;;;;;;;6.87;60.28;101520.22;5054011;28;19978;-56
2022/12/04 10:57:35;;;;;;;;;;;;;;;6.85;60.47;101517.56;5056095;28;20023;-56
2022/12/04 11:00:01;;;;;;;;;;;;;;;6.91;60.39;101522.00;5055668;28;19917;-56
2022/12/04 11:02:28;;;;;;;;;;;;;;;6.99;60.16;101514.25;5047372;28;19948;-56
2022/12/04 11:04:57;;;;;;;;;;;;;;;6.94;60.39;101515.91;5035817;28;20285;-55
2022/12/04 11:07:25;;;;;;;;;;;;;;;6.96;60.23;101512.47;5035927;28;19917;-56
2022/12/04 11:09:54;;;;;;;;;;;;;;;6.91;60.23;101516.78;5035639;28;19917;-57
2022/12/04 11:12:21;;;;;;;;;;;;;;;6.91;60.08;101516.78;5035584;28;19940;-56
2022/12/04 11:14:47;;;;;;;;;;;;;;;6.77;60.56;101513.97;5035239;28;19917;-55
2022/12/04 11:17:15;;;;;;;;;;;;;;;6.83;60.88;101518.41;5036035;28;20269;-56
2022/12/04 11:19:40;;;;;;;;;;;;;;;6.73;60.61;101517.41;5035337;28;19924;-53
2022/12/04 11:22:16;;;;;;;;;;;;;;;6.84;60.56;101515.81;5035830;28;19925;-56
2022/12/04 11:24:48;;;;;;;;;;;;;;;6.85;61.51;101514.06;5035697;28;19924;-54
2022/12/04 11:27:22;;;;;;;;;;;;;;;7.08;61.65;101515.22;5036046;28;20253;-55
2022/12/04 11:29:48;;;;;;;;;;;;;;;7.37;61.90;101506.78;5035784;28;19917;-55
2022/12/04 11:32:24;;;;;;;;;;;;;;;7.44;59.61;101500.75;5035498;28;19917;-55
2022/12/04 11:34:51;;;;;;;;;;;;;;;7.34;59.25;101498.91;5035424;28;19917;-56
2022/12/04 11:37:29;;;;;;;;;;;;;;;7.12;59.70;101495.22;5035373;28;19917;-58
2022/12/04 11:39:54;;;;;;;;;;;;;;;7.15;59.73;101501.34;5035241;28;19987;-56
2022/12/04 11:42:24;;;;;;;;;;;;;;;7.07;59.79;101497.78;5035441;28;20378;-54
2022/12/04 11:45:16;;;;;;;;;;;;;;;7.00;60.38;101498.56;5035347;28;19979;-54
2022/12/04 11:47:52;;;;;;;;;;;;;;;6.86;60.43;101507.97;5035274;28;19932;-55
2022/12/04 11:50:37;;;;;;;;;;;;;;;6.93;60.41;101512.44;5035573;28;19935;-56
2022/12/04 11:53:13;;;;;;;;;;;;;;;6.98;61.28;101510.75;5054665;28;19967;-56
2022/12/04 11:55:44;;;;;;;;;;;;;;;7.03;60.38;101510.81;5054586;28;19916;-58
2022/12/04 11:58:21;;;;;;;;;;;;;;;6.88;60.57;101503.66;5054899;28;20353;-56
2022/12/04 12:01:08;;;;;;;;;;;;;;;6.99;60.36;101511.63;5052702;28;20194;-56
2022/12/04 12:03:39;;;;;;;;;;;;;;;6.96;60.45;101509.84;5054849;28;19923;-56
2022/12/04 12:06:04;;;;;;;;;;;;;;;6.99;60.15;101502.06;5053849;28;19975;-56
2022/12/04 12:08:46;;;;;;;;;;;;;;;6.96;60.57;101504.63;5053403;28;19917;-57
2022/12/04 12:11:12;;;;;;;;;;;;;;;6.91;60.64;101503.72;5054623;28;19917;-56
2022/12/04 12:13:37;;;;;;;;;;;;;;;6.90;60.58;101499.31;5054496;28;19917;-55
2022/12/04 12:16:02;;;;;;;;;;;;;;;6.82;60.81;101508.81;5054275;28;19924;-57
2022/12/04 12:18:33;;;;;;;;;;;;;;;6.81;61.10;101504.44;5052253;28;19920;-56
2022/12/04 12:21:07;;;;;;;;;;;;;;;6.83;61.00;101507.97;5033763;28;20411;-56
2022/12/04 12:23:45;;;;;;;;;;;;;;;6.90;60.60;101500.22;5033887;28;19933;-55
2022/12/04 12:26:12;;;;;;;;;;;;;;;6.87;60.68;101502.78;5033301;28;20361;-56
2022/12/04 12:28:47;;;;;;;;;;;;;;;6.86;60.79;101508.88;5034565;28;19917;-56
2022/12/04 12:31:12;;;;;;;;;;;;;;;6.86;60.63;101502.75;5034699;28;19925;-56
2022/12/04 12:33:41;;;;;;;;;;;;;;;6.80;60.71;101495.75;5034169;28;19917;-54
2022/12/04 12:36:08;;;;;;;;;;;;;;;6.66;61.31;101494.69;5034182;28;19917;-55
2022/12/04 12:38:38;;;;;;;;;;;;;;;6.73;60.97;101500.88;5034274;28;19968;-55
2022/12/04 12:41:07;;;;;;;;;;;;;;;6.75;60.95;101504.41;5032775;28;20388;-55
2022/12/04 12:43:37;;;;;;;;;;;;;;;6.78;60.97;101500.09;5034194;28;20373;-56
2022/12/04 12:46:05;;;;;;;;;;;;;;;6.82;60.93;101503.59;5033070;28;19962;-55
2022/12/04 12:48:36;;;;;;;;;;;;;;;6.72;61.06;101505.22;5034264;28;19925;-55
2022/12/04 12:51:20;;;;;;;;;;;;;;;6.69;61.17;101506.91;5039184;28;19917;-56
2022/12/04 12:53:49;;;;;;;;;;;;;;;6.65;61.34;101514.72;5053867;28;19932;-55
2022/12/04 12:56:16;;;;;;;;;;;;;;;6.66;61.30;101510.34;5054320;28;19920;-55
2022/12/04 12:58:46;;;;;;;;;;;;;;;6.69;61.35;101509.53;5053869;28;19917;-54
2022/12/04 13:01:18;;;;;;;;;;;;;;;6.69;61.15;101504.31;5053569;28;19918;-56
2022/12/04 13:03:52;;;;;;;;;;;;;;;6.62;61.40;101493.81;5053920;28;19924;-56
2022/12/04 13:06:20;;;;;;;;;;;;;;;6.57;61.43;101495.44;5054030;28;19939;-57
2022/12/04 13:09:04;;;;;;;;;;;;;;;6.52;61.62;101489.31;5053588;28;20317;-57